sensor_id;sensor_type;location;lat;lon;timestamp;temperature;humidity
20459;DHT22;10388;52.314;7.938;2022-11-20T00:01:48;-5.40;99.90
20459;DHT22;10388;52.314;7.938;2022-11-20T00:04:18;-5.40;99.90
20459;DHT22;10388;52.314;7.938;2022-11-20T00:06:49;-5.40;99.90
20459;DHT22;10388;52.314;7.938;2022-11-20T00:09:19;-5.40;99.90
20459;DHT22;10388;52.314;7.938;2022-11-20T00:11:50;-5.40;99.90
20459;DHT22;10388;52.314;7.938;2022-11-20T00:14:21;-5.40;99.90
20459;DHT22;10388;52.314;7.938;2022-11-20T00:16:51;-5.40;99.90
20459;DHT22;10388;52.314;7.938;2022-11-20T00:19:22;-5.40;99.90
20459;DHT22;10388;52.314;7.938;2022-11-20T00:21:52;-5.40;99.90
20459;DHT22;10388;52.314;7.938;2022-11-20T00:24:25;-5.40;99.90
20459;DHT22;10388;52.314;7.938;2022-11-20T00:26:56;-5.40;99.90
20459;DHT22;10388;52.314;7.938;2022-11-20T00:29:26;-5.40;99.90
20459;DHT22;10388;52.314;7.938;2022-11-20T00:31:57;-5.50;99.90
20459;DHT22;10388;52.314;7.938;2022-11-20T00:34:27;-5.50;99.90
20459;DHT22;10388;52.314;7.938;2022-11-20T00:36:58;-5.60;99.90
20459;DHT22;10388;52.314;7.938;2022-11-20T00:39:28;-5.60;99.90
20459;DHT22;10388;52.314;7.938;2022-11-20T00:41:59;-5.60;99.90
20459;DHT22;10388;52.314;7.938;2022-11-20T00:44:29;-5.60;99.90
20459;DHT22;10388;52.314;7.938;2022-11-20T00:47:00;-5.60;99.90
20459;DHT22;10388;52.314;7.938;2022-11-20T00:49:30;-5.60;99.90
20459;DHT22;10388;52.314;7.938;2022-11-20T00:52:01;-5.60;99.90
20459;DHT22;10388;52.314;7.938;2022-11-20T00:54:31;-5.60;99.90
20459;DHT22;10388;52.314;7.938;2022-11-20T00:57:02;-5.60;99.90
20459;DHT22;10388;52.314;7.938;2022-11-20T00:59:32;-5.60;99.90
20459;DHT22;10388;52.314;7.938;2022-11-20T01:12:51;-5.70;99.90
20459;DHT22;10388;52.314;7.938;2022-11-20T01:15:42;-5.70;99.90
20459;DHT22;10388;52.314;7.938;2022-11-20T01:18:15;-5.70;99.90
20459;DHT22;10388;52.314;7.938;2022-11-20T01:20:49;-5.70;99.90
20459;DHT22;10388;52.314;7.938;2022-11-20T01:23:20;-5.80;99.90
20459;DHT22;10388;52.314;7.938;2022-11-20T01:25:55;-5.80;99.90
20459;DHT22;10388;52.314;7.938;2022-11-20T01:28:28;-5.80;99.90
20459;DHT22;10388;52.314;7.938;2022-11-20T01:31:10;-5.80;99.90
20459;DHT22;10388;52.314;7.938;2022-11-20T01:33:42;-5.80;99.90
20459;DHT22;10388;52.314;7.938;2022-11-20T01:36:15;-5.90;99.90
20459;DHT22;10388;52.314;7.938;2022-11-20T01:38:46;-5.90;99.90
20459;DHT22;10388;52.314;7.938;2022-11-20T01:41:17;-5.80;99.90
20459;DHT22;10388;52.314;7.938;2022-11-20T01:44:48;-5.90;99.90
20459;DHT22;10388;52.314;7.938;2022-11-20T01:47:30;-5.90;99.90
20459;DHT22;10388;52.314;7.938;2022-11-20T01:52:49;-5.90;99.90
20459;DHT22;10388;52.314;7.938;2022-11-20T01:55:37;-5.90;99.90
20459;DHT22;10388;52.314;7.938;2022-11-20T01:58:11;-6.00;99.90
20459;DHT22;10388;52.314;7.938;2022-11-20T02:00:48;-5.90;99.90
20459;DHT22;10388;52.314;7.938;2022-11-20T02:07:31;-5.90;99.90
20459;DHT22;10388;52.314;7.938;2022-11-20T02:10:02;-6.00;99.90
20459;DHT22;10388;52.314;7.938;2022-11-20T02:12:33;-6.00;99.90
20459;DHT22;10388;52.314;7.938;2022-11-20T02:15:22;-6.00;99.90
20459;DHT22;10388;52.314;7.938;2022-11-20T02:17:53;-6.00;99.90
20459;DHT22;10388;52.314;7.938;2022-11-20T02:20:24;-6.00;99.90
20459;DHT22;10388;52.314;7.938;2022-11-20T03:09:49;-6.20;99.90
20459;DHT22;10388;52.314;7.938;2022-11-20T03:15:55;-6.20;99.90
20459;DHT22;10388;52.314;7.938;2022-11-20T03:18:38;-6.20;99.90
20459;DHT22;10388;52.314;7.938;2022-11-20T03:36:25;-6.30;99.90
20459;DHT22;10388;52.314;7.938;2022-11-20T03:39:02;-6.40;99.90
20459;DHT22;10388;52.314;7.938;2022-11-20T03:48:50;-6.30;99.90
20459;DHT22;10388;52.314;7.938;2022-11-20T03:51:42;-6.30;99.90
20459;DHT22;10388;52.314;7.938;2022-11-20T03:54:40;-6.40;99.90
20459;DHT22;10388;52.314;7.938;2022-11-20T03:57:34;-6.40;99.90
20459;DHT22;10388;52.314;7.938;2022-11-20T04:00:42;-6.40;99.90
20459;DHT22;10388;52.314;7.938;2022-11-20T04:03:25;-6.40;99.90
20459;DHT22;10388;52.314;7.938;2022-11-20T04:06:33;-6.40;99.90
20459;DHT22;10388;52.314;7.938;2022-11-20T04:12:13;-6.50;99.90
20459;DHT22;10388;52.314;7.938;2022-11-20T04:17:51;-6.50;99.90
20459;DHT22;10388;52.314;7.938;2022-11-20T04:26:30;-6.50;99.90
20459;DHT22;10388;52.314;7.938;2022-11-20T04:36:32;-6.60;99.90
20459;DHT22;10388;52.314;7.938;2022-11-20T04:39:23;-6.60;99.90
20459;DHT22;10388;52.314;7.938;2022-11-20T04:42:14;-6.60;99.90
20459;DHT22;10388;52.314;7.938;2022-11-20T04:45:07;-6.60;99.90
20459;DHT22;10388;52.314;7.938;2022-11-20T04:47:59;-6.60;99.90
20459;DHT22;10388;52.314;7.938;2022-11-20T04:50:53;-6.60;99.90
20459;DHT22;10388;52.314;7.938;2022-11-20T04:54:07;-6.60;99.90
20459;DHT22;10388;52.314;7.938;2022-11-20T04:56:51;-6.60;99.90
20459;DHT22;10388;52.314;7.938;2022-11-20T04:59:22;-6.60;99.90
20459;DHT22;10388;52.314;7.938;2022-11-20T05:01:56;-6.60;99.90
20459;DHT22;10388;52.314;7.938;2022-11-20T05:04:41;-6.60;99.90
20459;DHT22;10388;52.314;7.938;2022-11-20T05:07:45;-6.70;99.90
20459;DHT22;10388;52.314;7.938;2022-11-20T05:10:32;-6.70;99.90
20459;DHT22;10388;52.314;7.938;2022-11-20T05:14:09;-6.70;99.90
20459;DHT22;10388;52.314;7.938;2022-11-20T05:19:54;-6.70;99.90
20459;DHT22;10388;52.314;7.938;2022-11-20T05:22:25;-6.70;99.90
20459;DHT22;10388;52.314;7.938;2022-11-20T05:27:46;-6.70;99.90
20459;DHT22;10388;52.314;7.938;2022-11-20T05:30:28;-6.70;99.90
20459;DHT22;10388;52.314;7.938;2022-11-20T05:45:18;-6.70;99.90
20459;DHT22;10388;52.314;7.938;2022-11-20T05:48:08;-6.80;99.90
20459;DHT22;10388;52.314;7.938;2022-11-20T05:50:54;-6.70;99.90
20459;DHT22;10388;52.314;7.938;2022-11-20T05:53:39;-6.70;99.90
20459;DHT22;10388;52.314;7.938;2022-11-20T05:59:40;-6.70;99.90
20459;DHT22;10388;52.314;7.938;2022-11-20T06:02:40;-6.70;99.90
20459;DHT22;10388;52.314;7.938;2022-11-20T06:08:54;-6.70;99.90
20459;DHT22;10388;52.314;7.938;2022-11-20T06:15:05;-6.70;99.90
20459;DHT22;10388;52.314;7.938;2022-11-20T06:18:19;-6.60;99.90
20459;DHT22;10388;52.314;7.938;2022-11-20T06:21:28;-6.60;99.90
20459;DHT22;10388;52.314;7.938;2022-11-20T06:24:19;-6.50;99.90
20459;DHT22;10388;52.314;7.938;2022-11-20T06:27:12;-6.40;99.90
20459;DHT22;10388;52.314;7.938;2022-11-20T06:29:48;-6.40;99.90
20459;DHT22;10388;52.314;7.938;2022-11-20T06:32:42;-6.30;99.90
20459;DHT22;10388;52.314;7.938;2022-11-20T06:41:53;-6.30;99.90
20459;DHT22;10388;52.314;7.938;2022-11-20T06:44:24;-6.20;99.90
20459;DHT22;10388;52.314;7.938;2022-11-20T06:46:54;-6.10;99.90
20459;DHT22;10388;52.314;7.938;2022-11-20T06:49:25;-6.10;99.90
20459;DHT22;10388;52.314;7.938;2022-11-20T06:51:56;-6.10;99.90
20459;DHT22;10388;52.314;7.938;2022-11-20T06:54:26;-6.10;99.90
20459;DHT22;10388;52.314;7.938;2022-11-20T06:56:57;-6.10;99.90
20459;DHT22;10388;52.314;7.938;2022-11-20T06:59:27;-6.00;99.90
20459;DHT22;10388;52.314;7.938;2022-11-20T07:01:58;-5.90;99.90
20459;DHT22;10388;52.314;7.938;2022-11-20T07:04:28;-5.80;99.90
20459;DHT22;10388;52.314;7.938;2022-11-20T07:06:59;-5.70;99.90
20459;DHT22;10388;52.314;7.938;2022-11-20T07:09:29;-5.60;99.90
20459;DHT22;10388;52.314;7.938;2022-11-20T07:12:00;-5.60;99.90
20459;DHT22;10388;52.314;7.938;2022-11-20T07:14:30;-5.50;99.90
20459;DHT22;10388;52.314;7.938;2022-11-20T07:17:01;-5.50;99.90
20459;DHT22;10388;52.314;7.938;2022-11-20T07:19:31;-5.40;99.90
20459;DHT22;10388;52.314;7.938;2022-11-20T07:22:02;-5.30;99.90
20459;DHT22;10388;52.314;7.938;2022-11-20T07:24:32;-5.20;99.90
20459;DHT22;10388;52.314;7.938;2022-11-20T07:27:03;-5.20;99.90
20459;DHT22;10388;52.314;7.938;2022-11-20T07:29:34;-5.10;99.90
20459;DHT22;10388;52.314;7.938;2022-11-20T07:32:04;-5.10;99.90
20459;DHT22;10388;52.314;7.938;2022-11-20T07:34:35;-5.00;99.90
20459;DHT22;10388;52.314;7.938;2022-11-20T07:37:06;-4.90;99.90
20459;DHT22;10388;52.314;7.938;2022-11-20T07:39:36;-4.80;99.90
20459;DHT22;10388;52.314;7.938;2022-11-20T07:42:07;-4.70;99.90
20459;DHT22;10388;52.314;7.938;2022-11-20T07:44:38;-4.60;99.90
20459;DHT22;10388;52.314;7.938;2022-11-20T07:47:09;-4.50;99.90
20459;DHT22;10388;52.314;7.938;2022-11-20T07:49:39;-4.40;99.90
20459;DHT22;10388;52.314;7.938;2022-11-20T07:52:10;-4.30;99.90
20459;DHT22;10388;52.314;7.938;2022-11-20T07:54:40;-4.30;99.90
20459;DHT22;10388;52.314;7.938;2022-11-20T07:57:11;-4.20;99.90
20459;DHT22;10388;52.314;7.938;2022-11-20T07:59:41;-4.10;99.90
20459;DHT22;10388;52.314;7.938;2022-11-20T08:02:12;-4.10;99.90
20459;DHT22;10388;52.314;7.938;2022-11-20T08:04:42;-4.00;99.90
20459;DHT22;10388;52.314;7.938;2022-11-20T08:07:13;-3.90;99.90
20459;DHT22;10388;52.314;7.938;2022-11-20T08:09:43;-3.90;99.90
20459;DHT22;10388;52.314;7.938;2022-11-20T08:12:19;-3.80;99.90
20459;DHT22;10388;52.314;7.938;2022-11-20T08:15:09;-3.70;99.90
20459;DHT22;10388;52.314;7.938;2022-11-20T08:17:39;-3.70;99.90
20459;DHT22;10388;52.314;7.938;2022-11-20T08:20:10;-3.60;99.90
20459;DHT22;10388;52.314;7.938;2022-11-20T08:22:41;-3.50;99.90
20459;DHT22;10388;52.314;7.938;2022-11-20T08:25:11;-3.50;99.90
20459;DHT22;10388;52.314;7.938;2022-11-20T08:27:42;-3.40;99.90
20459;DHT22;10388;52.314;7.938;2022-11-20T08:30:13;-3.30;99.90
20459;DHT22;10388;52.314;7.938;2022-11-20T08:32:43;-3.30;99.90
20459;DHT22;10388;52.314;7.938;2022-11-20T08:35:14;-3.20;99.90
20459;DHT22;10388;52.314;7.938;2022-11-20T08:37:47;-3.10;99.90
20459;DHT22;10388;52.314;7.938;2022-11-20T08:40:18;-3.10;99.90
20459;DHT22;10388;52.314;7.938;2022-11-20T08:42:50;-3.00;99.90
20459;DHT22;10388;52.314;7.938;2022-11-20T08:45:20;-3.00;99.90
20459;DHT22;10388;52.314;7.938;2022-11-20T08:47:51;-2.90;99.90
20459;DHT22;10388;52.314;7.938;2022-11-20T08:50:21;-2.80;99.90
20459;DHT22;10388;52.314;7.938;2022-11-20T08:52:52;-2.80;99.90
20459;DHT22;10388;52.314;7.938;2022-11-20T08:55:22;-2.70;99.90
20459;DHT22;10388;52.314;7.938;2022-11-20T08:57:53;-2.70;99.90
20459;DHT22;10388;52.314;7.938;2022-11-20T09:00:23;-2.60;99.90
20459;DHT22;10388;52.314;7.938;2022-11-20T09:02:54;-2.50;99.90
20459;DHT22;10388;52.314;7.938;2022-11-20T09:05:24;-2.50;99.90
20459;DHT22;10388;52.314;7.938;2022-11-20T09:07:58;-2.40;99.90
20459;DHT22;10388;52.314;7.938;2022-11-20T09:10:29;-2.30;99.90
20459;DHT22;10388;52.314;7.938;2022-11-20T09:13:00;-2.20;99.90
20459;DHT22;10388;52.314;7.938;2022-11-20T09:15:31;-2.20;99.90
20459;DHT22;10388;52.314;7.938;2022-11-20T09:18:02;-2.10;99.90
20459;DHT22;10388;52.314;7.938;2022-11-20T09:20:34;-2.10;99.90
20459;DHT22;10388;52.314;7.938;2022-11-20T09:23:05;-2.00;99.90
20459;DHT22;10388;52.314;7.938;2022-11-20T09:25:36;-2.00;99.90
20459;DHT22;10388;52.314;7.938;2022-11-20T09:28:06;-1.90;99.90
20459;DHT22;10388;52.314;7.938;2022-11-20T09:30:37;-1.80;99.90
20459;DHT22;10388;52.314;7.938;2022-11-20T09:33:07;-1.70;99.90
20459;DHT22;10388;52.314;7.938;2022-11-20T09:35:38;-1.70;99.90
20459;DHT22;10388;52.314;7.938;2022-11-20T09:38:08;-1.60;99.90
20459;DHT22;10388;52.314;7.938;2022-11-20T09:40:47;-1.60;99.90
20459;DHT22;10388;52.314;7.938;2022-11-20T09:43:28;-1.60;99.90
20459;DHT22;10388;52.314;7.938;2022-11-20T09:46:06;-1.60;99.90
20459;DHT22;10388;52.314;7.938;2022-11-20T09:51:33;-1.50;99.90
20459;DHT22;10388;52.314;7.938;2022-11-20T09:54:16;-1.40;99.90
20459;DHT22;10388;52.314;7.938;2022-11-20T09:56:52;-1.40;99.90
20459;DHT22;10388;52.314;7.938;2022-11-20T09:59:45;-1.40;99.90
20459;DHT22;10388;52.314;7.938;2022-11-20T10:02:28;-1.30;99.90
20459;DHT22;10388;52.314;7.938;2022-11-20T10:05:18;-1.30;99.90
20459;DHT22;10388;52.314;7.938;2022-11-20T10:11:35;-1.10;99.90
20459;DHT22;10388;52.314;7.938;2022-11-20T10:16:26;-1.10;99.90
20459;DHT22;10388;52.314;7.938;2022-11-20T10:19:19;-1.00;99.90
20459;DHT22;10388;52.314;7.938;2022-11-20T10:22:04;-0.90;99.90
20459;DHT22;10388;52.314;7.938;2022-11-20T10:25:10;-0.90;99.90
20459;DHT22;10388;52.314;7.938;2022-11-20T10:27:54;-0.80;99.90
20459;DHT22;10388;52.314;7.938;2022-11-20T10:30:27;-0.70;99.90
20459;DHT22;10388;52.314;7.938;2022-11-20T10:33:05;-0.70;99.90
20459;DHT22;10388;52.314;7.938;2022-11-20T10:38:23;-0.60;99.90
20459;DHT22;10388;52.314;7.938;2022-11-20T10:40:58;-0.60;99.90
20459;DHT22;10388;52.314;7.938;2022-11-20T10:43:58;-0.60;99.90
20459;DHT22;10388;52.314;7.938;2022-11-20T10:46:40;-0.50;99.90
20459;DHT22;10388;52.314;7.938;2022-11-20T10:49:16;-0.40;99.90
20459;DHT22;10388;52.314;7.938;2022-11-20T10:51:58;-0.40;99.90
20459;DHT22;10388;52.314;7.938;2022-11-20T10:58:04;-0.40;99.90
20459;DHT22;10388;52.314;7.938;2022-11-20T11:00:39;-0.20;99.90
20459;DHT22;10388;52.314;7.938;2022-11-20T11:03:30;0.00;99.90
20459;DHT22;10388;52.314;7.938;2022-11-20T11:06:10;0.00;99.90
20459;DHT22;10388;52.314;7.938;2022-11-20T11:08:44;0.10;99.90
20459;DHT22;10388;52.314;7.938;2022-11-20T11:11:23;0.20;99.90
20459;DHT22;10388;52.314;7.938;2022-11-20T11:14:05;0.30;99.90
20459;DHT22;10388;52.314;7.938;2022-11-20T11:16:40;0.30;99.90
20459;DHT22;10388;52.314;7.938;2022-11-20T11:19:18;0.30;99.90
20459;DHT22;10388;52.314;7.938;2022-11-20T11:21:54;0.40;99.90
20459;DHT22;10388;52.314;7.938;2022-11-20T11:24:29;0.50;99.90
20459;DHT22;10388;52.314;7.938;2022-11-20T11:27:11;0.60;99.90
20459;DHT22;10388;52.314;7.938;2022-11-20T11:29:43;0.70;99.90
20459;DHT22;10388;52.314;7.938;2022-11-20T11:32:21;0.80;99.90
20459;DHT22;10388;52.314;7.938;2022-11-20T11:35:00;0.80;99.90
20459;DHT22;10388;52.314;7.938;2022-11-20T11:37:35;0.80;99.90
20459;DHT22;10388;52.314;7.938;2022-11-20T11:40:11;0.90;99.90
20459;DHT22;10388;52.314;7.938;2022-11-20T11:42:51;1.00;99.90
20459;DHT22;10388;52.314;7.938;2022-11-20T11:45:23;0.90;99.90
20459;DHT22;10388;52.314;7.938;2022-11-20T11:47:57;0.80;99.90
20459;DHT22;10388;52.314;7.938;2022-11-20T11:50:29;0.80;99.90
20459;DHT22;10388;52.314;7.938;2022-11-20T11:53:07;0.80;99.90
20459;DHT22;10388;52.314;7.938;2022-11-20T11:56:13;0.80;99.90
20459;DHT22;10388;52.314;7.938;2022-11-20T11:58:52;0.70;99.90
20459;DHT22;10388;52.314;7.938;2022-11-20T12:01:37;0.80;99.90
20459;DHT22;10388;52.314;7.938;2022-11-20T12:06:52;0.70;99.90
20459;DHT22;10388;52.314;7.938;2022-11-20T12:09:29;0.60;99.90
20459;DHT22;10388;52.314;7.938;2022-11-20T12:12:17;0.60;99.90
20459;DHT22;10388;52.314;7.938;2022-11-20T12:14:53;0.50;99.90
20459;DHT22;10388;52.314;7.938;2022-11-20T12:17:24;0.60;99.90
20459;DHT22;10388;52.314;7.938;2022-11-20T12:19:55;0.60;99.90
20459;DHT22;10388;52.314;7.938;2022-11-20T12:22:41;0.60;99.90
20459;DHT22;10388;52.314;7.938;2022-11-20T12:30:46;0.60;99.90
20459;DHT22;10388;52.314;7.938;2022-11-20T12:33:43;0.60;99.90
20459;DHT22;10388;52.314;7.938;2022-11-20T12:36:32;0.60;99.90
20459;DHT22;10388;52.314;7.938;2022-11-20T12:42:05;0.60;99.90
20459;DHT22;10388;52.314;7.938;2022-11-20T12:48:00;0.60;99.90
20459;DHT22;10388;52.314;7.938;2022-11-20T12:53:33;0.70;99.90
20459;DHT22;10388;52.314;7.938;2022-11-20T13:07:37;0.90;99.90
20459;DHT22;10388;52.314;7.938;2022-11-20T13:13:07;0.90;99.90
20459;DHT22;10388;52.314;7.938;2022-11-20T13:15:53;0.90;99.90
20459;DHT22;10388;52.314;7.938;2022-11-20T13:18:26;0.90;99.90
20459;DHT22;10388;52.314;7.938;2022-11-20T13:20:57;0.90;99.90
20459;DHT22;10388;52.314;7.938;2022-11-20T13:23:28;0.80;99.90
20459;DHT22;10388;52.314;7.938;2022-11-20T13:26:34;0.80;99.90
20459;DHT22;10388;52.314;7.938;2022-11-20T13:31:48;0.90;99.90
20459;DHT22;10388;52.314;7.938;2022-11-20T13:34:26;0.90;99.90
20459;DHT22;10388;52.314;7.938;2022-11-20T13:36:59;0.90;99.90
20459;DHT22;10388;52.314;7.938;2022-11-20T13:39:35;0.80;99.90
20459;DHT22;10388;52.314;7.938;2022-11-20T13:44:48;0.80;99.90
20459;DHT22;10388;52.314;7.938;2022-11-20T13:47:24;0.90;99.90
20459;DHT22;10388;52.314;7.938;2022-11-20T13:49:57;0.80;99.90
20459;DHT22;10388;52.314;7.938;2022-11-20T13:55:34;0.90;99.90
20459;DHT22;10388;52.314;7.938;2022-11-20T14:01:30;1.00;99.90
20459;DHT22;10388;52.314;7.938;2022-11-20T14:03:35;1.00;99.90
20459;DHT22;10388;52.314;7.938;2022-11-20T14:08:54;1.00;99.90
20459;DHT22;10388;52.314;7.938;2022-11-20T14:11:27;1.00;99.90
20459;DHT22;10388;52.314;7.938;2022-11-20T14:14:14;1.00;99.90
20459;DHT22;10388;52.314;7.938;2022-11-20T14:16:46;1.10;99.90
20459;DHT22;10388;52.314;7.938;2022-11-20T14:22:07;1.10;99.90
20459;DHT22;10388;52.314;7.938;2022-11-20T14:24:38;1.00;99.90
20459;DHT22;10388;52.314;7.938;2022-11-20T14:27:17;1.00;99.90
20459;DHT22;10388;52.314;7.938;2022-11-20T14:29:49;1.00;99.90
20459;DHT22;10388;52.314;7.938;2022-11-20T14:32:24;1.00;99.90
20459;DHT22;10388;52.314;7.938;2022-11-20T14:35:02;1.00;99.90
20459;DHT22;10388;52.314;7.938;2022-11-20T14:37:38;0.90;99.90
20459;DHT22;10388;52.314;7.938;2022-11-20T14:40:27;0.90;99.90
20459;DHT22;10388;52.314;7.938;2022-11-20T14:42:59;0.90;99.90
20459;DHT22;10388;52.314;7.938;2022-11-20T14:45:29;0.90;99.90
20459;DHT22;10388;52.314;7.938;2022-11-20T14:48:00;0.90;99.90
20459;DHT22;10388;52.314;7.938;2022-11-20T14:50:31;0.90;99.90
20459;DHT22;10388;52.314;7.938;2022-11-20T14:53:02;1.00;99.90
20459;DHT22;10388;52.314;7.938;2022-11-20T14:55:39;0.90;99.90
20459;DHT22;10388;52.314;7.938;2022-11-20T14:58:23;0.90;99.90
20459;DHT22;10388;52.314;7.938;2022-11-20T15:00:57;0.90;99.90
20459;DHT22;10388;52.314;7.938;2022-11-20T15:03:36;0.80;99.90
20459;DHT22;10388;52.314;7.938;2022-11-20T15:06:11;0.90;99.90
20459;DHT22;10388;52.314;7.938;2022-11-20T15:08:51;0.90;99.90
20459;DHT22;10388;52.314;7.938;2022-11-20T15:11:29;0.80;99.90
20459;DHT22;10388;52.314;7.938;2022-11-20T15:14:06;0.80;99.90
20459;DHT22;10388;52.314;7.938;2022-11-20T15:16:36;0.80;99.90
20459;DHT22;10388;52.314;7.938;2022-11-20T15:19:16;0.80;99.90
20459;DHT22;10388;52.314;7.938;2022-11-20T15:21:47;0.70;99.90
20459;DHT22;10388;52.314;7.938;2022-11-20T15:24:19;0.80;99.90
20459;DHT22;10388;52.314;7.938;2022-11-20T15:26:50;0.70;99.90
20459;DHT22;10388;52.314;7.938;2022-11-20T15:29:22;0.70;99.90
20459;DHT22;10388;52.314;7.938;2022-11-20T15:31:53;0.70;99.90
20459;DHT22;10388;52.314;7.938;2022-11-20T15:34:27;0.70;99.90
20459;DHT22;10388;52.314;7.938;2022-11-20T15:36:57;0.60;99.90
20459;DHT22;10388;52.314;7.938;2022-11-20T15:39:28;0.60;99.90
20459;DHT22;10388;52.314;7.938;2022-11-20T15:41:58;0.60;99.90
20459;DHT22;10388;52.314;7.938;2022-11-20T15:44:29;0.60;99.90
20459;DHT22;10388;52.314;7.938;2022-11-20T15:46:59;0.60;99.90
20459;DHT22;10388;52.314;7.938;2022-11-20T15:49:30;0.60;99.90
20459;DHT22;10388;52.314;7.938;2022-11-20T15:52:01;0.60;99.90
20459;DHT22;10388;52.314;7.938;2022-11-20T15:54:31;0.70;99.90
20459;DHT22;10388;52.314;7.938;2022-11-20T15:57:02;0.60;99.90
20459;DHT22;10388;52.314;7.938;2022-11-20T15:59:33;0.70;99.90
20459;DHT22;10388;52.314;7.938;2022-11-20T16:02:09;0.70;99.90
20459;DHT22;10388;52.314;7.938;2022-11-20T16:04:39;0.70;99.90
20459;DHT22;10388;52.314;7.938;2022-11-20T16:07:11;0.70;99.90
20459;DHT22;10388;52.314;7.938;2022-11-20T16:09:42;0.80;99.90
20459;DHT22;10388;52.314;7.938;2022-11-20T16:12:12;0.70;99.90
20459;DHT22;10388;52.314;7.938;2022-11-20T16:15:03;0.70;99.90
20459;DHT22;10388;52.314;7.938;2022-11-20T16:17:52;0.80;99.90
20459;DHT22;10388;52.314;7.938;2022-11-20T16:20:23;0.70;99.90
20459;DHT22;10388;52.314;7.938;2022-11-20T16:22:54;0.70;99.90
20459;DHT22;10388;52.314;7.938;2022-11-20T16:25:27;0.70;99.90
20459;DHT22;10388;52.314;7.938;2022-11-20T16:27:57;0.80;99.90
20459;DHT22;10388;52.314;7.938;2022-11-20T16:30:28;0.80;99.90
20459;DHT22;10388;52.314;7.938;2022-11-20T16:33:00;0.80;99.90
20459;DHT22;10388;52.314;7.938;2022-11-20T16:35:31;0.80;99.90
20459;DHT22;10388;52.314;7.938;2022-11-20T16:38:01;0.80;99.90
20459;DHT22;10388;52.314;7.938;2022-11-20T16:40:34;0.70;99.90
20459;DHT22;10388;52.314;7.938;2022-11-20T16:43:10;0.70;99.90
20459;DHT22;10388;52.314;7.938;2022-11-20T16:45:42;0.70;99.90
20459;DHT22;10388;52.314;7.938;2022-11-20T16:48:15;0.80;99.90
20459;DHT22;10388;52.314;7.938;2022-11-20T16:50:51;0.80;99.90
20459;DHT22;10388;52.314;7.938;2022-11-20T16:53:22;0.80;99.90
20459;DHT22;10388;52.314;7.938;2022-11-20T16:55:52;0.80;99.90
20459;DHT22;10388;52.314;7.938;2022-11-20T16:58:23;0.80;99.90
20459;DHT22;10388;52.314;7.938;2022-11-20T17:00:53;0.80;99.90
20459;DHT22;10388;52.314;7.938;2022-11-20T17:03:24;0.80;99.90
20459;DHT22;10388;52.314;7.938;2022-11-20T17:05:55;0.80;99.90
20459;DHT22;10388;52.314;7.938;2022-11-20T17:08:27;0.80;99.90
20459;DHT22;10388;52.314;7.938;2022-11-20T17:11:05;0.80;99.90
20459;DHT22;10388;52.314;7.938;2022-11-20T17:13:36;0.80;99.90
20459;DHT22;10388;52.314;7.938;2022-11-20T17:16:12;0.90;99.90
20459;DHT22;10388;52.314;7.938;2022-11-20T17:18:43;0.90;99.90
20459;DHT22;10388;52.314;7.938;2022-11-20T17:21:14;1.00;99.90
20459;DHT22;10388;52.314;7.938;2022-11-20T17:23:45;0.90;99.90
20459;DHT22;10388;52.314;7.938;2022-11-20T17:26:21;1.00;99.90
20459;DHT22;10388;52.314;7.938;2022-11-20T17:28:54;1.00;99.90
20459;DHT22;10388;52.314;7.938;2022-11-20T17:31:26;0.90;99.90
20459;DHT22;10388;52.314;7.938;2022-11-20T17:33:57;0.90;99.90
20459;DHT22;10388;52.314;7.938;2022-11-20T17:36:30;0.90;99.90
20459;DHT22;10388;52.314;7.938;2022-11-20T17:39:01;0.90;99.90
20459;DHT22;10388;52.314;7.938;2022-11-20T17:41:31;0.90;99.90
20459;DHT22;10388;52.314;7.938;2022-11-20T17:44:03;0.90;99.90
20459;DHT22;10388;52.314;7.938;2022-11-20T17:46:34;0.90;99.90
20459;DHT22;10388;52.314;7.938;2022-11-20T17:49:05;0.90;99.90
20459;DHT22;10388;52.314;7.938;2022-11-20T17:51:35;0.90;99.90
20459;DHT22;10388;52.314;7.938;2022-11-20T17:54:06;0.90;99.90
20459;DHT22;10388;52.314;7.938;2022-11-20T17:56:36;0.90;99.90
20459;DHT22;10388;52.314;7.938;2022-11-20T17:59:26;0.90;99.90
20459;DHT22;10388;52.314;7.938;2022-11-20T18:01:56;0.90;99.90
20459;DHT22;10388;52.314;7.938;2022-11-20T18:04:27;0.90;99.90
20459;DHT22;10388;52.314;7.938;2022-11-20T18:06:57;0.90;99.90
20459;DHT22;10388;52.314;7.938;2022-11-20T18:09:28;1.00;99.90
20459;DHT22;10388;52.314;7.938;2022-11-20T18:11:59;1.00;99.90
20459;DHT22;10388;52.314;7.938;2022-11-20T18:14:29;1.00;99.90
20459;DHT22;10388;52.314;7.938;2022-11-20T18:17:07;1.00;99.90
20459;DHT22;10388;52.314;7.938;2022-11-20T18:19:42;1.00;99.90
20459;DHT22;10388;52.314;7.938;2022-11-20T18:22:14;1.00;99.90
20459;DHT22;10388;52.314;7.938;2022-11-20T18:24:45;1.00;99.90
20459;DHT22;10388;52.314;7.938;2022-11-20T18:27:18;1.00;99.90
20459;DHT22;10388;52.314;7.938;2022-11-20T18:29:49;1.00;99.90
20459;DHT22;10388;52.314;7.938;2022-11-20T18:32:22;1.00;99.90
20459;DHT22;10388;52.314;7.938;2022-11-20T18:34:53;1.00;99.90
20459;DHT22;10388;52.314;7.938;2022-11-20T18:37:23;1.00;99.90
20459;DHT22;10388;52.314;7.938;2022-11-20T18:39:54;0.90;99.90
20459;DHT22;10388;52.314;7.938;2022-11-20T18:42:26;0.90;99.90
20459;DHT22;10388;52.314;7.938;2022-11-20T18:45:15;0.90;99.90
20459;DHT22;10388;52.314;7.938;2022-11-20T18:47:45;0.90;99.90
20459;DHT22;10388;52.314;7.938;2022-11-20T18:50:16;0.90;99.90
20459;DHT22;10388;52.314;7.938;2022-11-20T18:52:48;0.90;99.90
20459;DHT22;10388;52.314;7.938;2022-11-20T18:55:19;0.90;99.90
20459;DHT22;10388;52.314;7.938;2022-11-20T18:57:49;0.90;99.90
20459;DHT22;10388;52.314;7.938;2022-11-20T19:00:20;0.90;99.90
20459;DHT22;10388;52.314;7.938;2022-11-20T19:02:54;0.90;99.90
20459;DHT22;10388;52.314;7.938;2022-11-20T19:05:24;0.90;99.90
20459;DHT22;10388;52.314;7.938;2022-11-20T19:07:55;0.80;99.90
20459;DHT22;10388;52.314;7.938;2022-11-20T19:10:26;0.90;99.90
20459;DHT22;10388;52.314;7.938;2022-11-20T19:12:56;0.80;99.90
20459;DHT22;10388;52.314;7.938;2022-11-20T19:15:28;0.80;99.90
20459;DHT22;10388;52.314;7.938;2022-11-20T19:17:59;0.80;99.90
20459;DHT22;10388;52.314;7.938;2022-11-20T19:20:30;0.80;99.90
20459;DHT22;10388;52.314;7.938;2022-11-20T19:23:01;0.70;99.90
20459;DHT22;10388;52.314;7.938;2022-11-20T19:25:31;0.70;99.90
20459;DHT22;10388;52.314;7.938;2022-11-20T19:28:02;0.70;99.90
20459;DHT22;10388;52.314;7.938;2022-11-20T19:30:33;0.70;99.90
20459;DHT22;10388;52.314;7.938;2022-11-20T19:33:03;0.70;99.90
20459;DHT22;10388;52.314;7.938;2022-11-20T19:35:34;0.70;99.90
20459;DHT22;10388;52.314;7.938;2022-11-20T19:38:06;0.70;99.90
20459;DHT22;10388;52.314;7.938;2022-11-20T19:40:36;0.70;99.90
20459;DHT22;10388;52.314;7.938;2022-11-20T19:43:07;0.60;99.90
20459;DHT22;10388;52.314;7.938;2022-11-20T19:45:37;0.60;99.90
20459;DHT22;10388;52.314;7.938;2022-11-20T19:48:08;0.70;99.90
20459;DHT22;10388;52.314;7.938;2022-11-20T19:50:39;0.60;99.90
20459;DHT22;10388;52.314;7.938;2022-11-20T19:53:09;0.60;99.90
20459;DHT22;10388;52.314;7.938;2022-11-20T19:55:40;0.60;99.90
20459;DHT22;10388;52.314;7.938;2022-11-20T19:58:14;0.60;99.90
20459;DHT22;10388;52.314;7.938;2022-11-20T20:00:45;0.60;99.90